Time,TemperatureF,DewpointF,PressureIn,WindDirection,WindDirectionDegrees,WindSpeedMPH,WindSpeedGustMPH,Humidity,HourlyPrecipIn,Conditions,Clouds,dailyrainin,SoftwareType,DateUTC
2013-08-11 00:00:00,84.5,78.4,29.95,East,86,13.0,16.0,82,0.00,CLR,,0.00,WeatherDisplay:10.37,2013-08-11 06:00:00,
2013-08-11 00:15:00,84.5,78.4,29.94,East,87,14.0,16.0,82,0.00,CLR,,0.00,WeatherDisplay:10.37,2013-08-11 06:15:00,
2013-08-11 00:30:00,84.4,79.0,29.93,East,79,12.0,15.0,84,0.00,CLR,,0.00,WeatherDisplay:10.37,2013-08-11 06:30:00,
2013-08-11 00:45:00,84.4,78.7,29.93,East,85,14.0,16.0,83,0.00,CLR,,0.00,WeatherDisplay:10.37,2013-08-11 06:45:00,
2013-08-11 01:01:00,84.8,79.0,29.93,East,89,10.0,18.0,83,0.00,CLR,,0.00,WeatherDisplay:10.37,2013-08-11 07:01:00,
2013-08-11 01:15:00,84.6,79.2,29.93,East,82,12.0,15.0,84,0.00,CLR,,0.00,WeatherDisplay:10.37,2013-08-11 07:15:00,
2013-08-11 01:30:00,84.5,78.8,29.92,East,79,12.0,18.0,83,0.00,CLR,,0.00,WeatherDisplay:10.37,2013-08-11 07:30:00,
2013-08-11 01:45:00,84.5,78.4,29.92,ENE,78,14.0,16.0,82,0.00,CLR,,0.00,WeatherDisplay:10.37,2013-08-11 07:45:00,
2013-08-11 02:00:00,84.6,78.5,29.91,East,84,8.0,16.0,82,0.00,CLR,,0.00,WeatherDisplay:10.37,2013-08-11 08:00:00,
2013-08-11 02:15:00,84.5,78.0,29.91,East,81,10.0,15.0,81,0.00,CLR,,0.00,WeatherDisplay:10.37,2013-08-11 08:15:00,
2013-08-11 02:30:00,84.5,78.4,29.91,ENE,78,13.0,15.0,82,0.00,CLR,,0.00,WeatherDisplay:10.37,2013-08-11 08:30:00,
2013-08-11 02:45:00,84.5,78.7,29.91,East,93,9.0,15.0,83,0.00,CLR,,0.00,WeatherDisplay:10.37,2013-08-11 08:45:00,
2013-08-11 03:00:00,84.5,78.8,29.91,East,83,13.0,19.0,83,0.00,CLR,,0.00,WeatherDisplay:10.37,2013-08-11 09:00:00,
2013-08-11 03:15:00,84.5,78.4,29.90,East,93,14.0,19.0,82,0.00,CLR,,0.00,WeatherDisplay:10.37,2013-08-11 09:15:00,
2013-08-11 03:30:00,84.4,78.3,29.90,East,92,16.0,20.0,82,0.00,CLR,,0.00,WeatherDisplay:10.37,2013-08-11 09:30:00,
2013-08-11 03:45:00,84.5,78.7,29.91,East,89,12.0,20.0,83,0.00,CLR,,0.00,WeatherDisplay:10.37,2013-08-11 09:45:00,
2013-08-11 04:15:00,84.4,78.3,29.91,East,88,10.0,20.0,82,0.00,CLR,,0.00,WeatherDisplay:10.37,2013-08-11 10:15:00,
2013-08-11 04:30:00,84.3,78.2,29.91,East,90,16.0,21.0,82,0.00,CLR,,0.00,WeatherDisplay:10.37,2013-08-11 10:30:00,
2013-08-11 04:45:00,84.3,78.9,29.91,East,85,14.0,19.0,84,0.00,CLR,,0.00,WeatherDisplay:10.37,2013-08-11 10:45:00,
2013-08-11 05:00:00,84.4,78.3,29.91,East,94,9.0,19.0,82,0.00,CLR,,0.00,WeatherDisplay:10.37,2013-08-11 11:00:00,
2013-08-11 05:15:00,84.3,78.2,29.92,East,81,16.0,20.0,82,0.00,CLR,,0.00,WeatherDisplay:10.37,2013-08-11 11:15:00,
2013-08-11 05:30:00,84.3,78.2,29.92,East,95,15.0,21.0,82,0.00,CLR,,0.00,WeatherDisplay:10.37,2013-08-11 11:30:00,
2013-08-11 05:45:00,84.2,78.5,29.93,East,97,7.0,15.0,83,0.00,CLR,,0.00,WeatherDisplay:10.37,2013-08-11 11:45:00,
2013-08-11 06:00:00,83.6,78.3,29.93,East,99,13.0,23.0,84,0.00,CLR,,0.00,WeatherDisplay:10.37,2013-08-11 12:00:00,
2013-08-11 06:15:00,84.1,77.6,29.93,East,79,14.0,19.0,81,0.00,CLR,,0.00,WeatherDisplay:10.37,2013-08-11 12:15:00,
2013-08-11 06:31:00,84.2,78.8,29.94,East,79,5.0,19.0,84,0.00,CLR,,0.00,WeatherDisplay:10.37,2013-08-11 12:31:00,
2013-08-11 06:45:00,84.3,79.0,29.95,ENE,59,7.0,15.0,84,0.00,CLR,,0.00,WeatherDisplay:10.37,2013-08-11 12:45:00,
2013-08-11 07:00:00,85.0,78.5,29.96,East,87,13.0,18.0,81,0.00,CLR,,0.00,WeatherDisplay:10.37,2013-08-11 13:00:00,
2013-08-11 07:15:00,85.0,78.5,29.95,East,79,12.0,19.0,81,0.00,CLR,,0.00,WeatherDisplay:10.37,2013-08-11 13:15:00,
2013-08-11 07:30:00,85.3,78.4,29.96,ENE,73,10.0,18.0,80,0.00,CLR,,0.00,WeatherDisplay:10.37,2013-08-11 13:30:00,
2013-08-11 07:46:00,85.0,78.5,29.96,East,81,12.0,19.0,81,0.00,CLR,,0.00,WeatherDisplay:10.37,2013-08-11 13:46:00,
2013-08-11 08:00:00,85.7,78.8,29.96,East,80,14.0,19.0,80,0.00,CLR,,0.00,WeatherDisplay:10.37,2013-08-11 14:00:00,
2013-08-11 08:16:00,85.8,78.9,29.97,ENE,63,13.0,21.0,80,0.00,CLR,,0.00,WeatherDisplay:10.37,2013-08-11 14:16:00,
2013-08-11 08:30:00,85.8,79.3,29.95,ENE,76,14.0,19.0,81,0.00,CLR,,0.00,WeatherDisplay:10.37,2013-08-11 14:30:00,
2013-08-11 08:45:00,85.5,78.6,29.95,East,83,8.0,18.0,80,0.00,CLR,,0.00,WeatherDisplay:10.37,2013-08-11 14:45:00,
2013-08-11 09:01:00,83.9,78.9,29.96,ESE,107,8.0,15.0,85,0.00,CLR,,0.00,WeatherDisplay:10.37,2013-08-11 15:01:00,
2013-08-11 09:15:00,84.1,78.8,29.97,East,90,12.0,16.0,84,0.00,CLR,,0.00,WeatherDisplay:10.37,2013-08-11 15:15:00,
2013-08-11 09:31:00,83.7,78.7,29.97,East,81,12.0,16.0,85,0.00,CLR,,0.00,WeatherDisplay:10.37,2013-08-11 15:31:00,
2013-08-11 09:46:00,84.2,79.2,29.97,ESE,106,6.0,14.0,85,0.00,CLR,,0.00,WeatherDisplay:10.37,2013-08-11 15:46:00,
2013-08-11 10:00:00,85.0,79.3,29.97,ESE,106,7.0,13.0,83,0.00,CLR,,0.00,WeatherDisplay:10.37,2013-08-11 16:00:00,
2013-08-11 10:15:00,84.4,77.2,29.98,East,81,10.0,19.0,79,0.00,CLR,,0.00,WeatherDisplay:10.37,2013-08-11 16:15:00,
2013-08-11 10:30:00,84.2,78.1,29.98,ENE,62,9.0,16.0,82,0.00,CLR,,0.00,WeatherDisplay:10.37,2013-08-11 16:30:00,
2013-08-11 10:45:00,83.9,78.2,29.98,ENE,62,7.0,19.0,83,0.00,CLR,,0.00,WeatherDisplay:10.37,2013-08-11 16:45:00,
2013-08-11 11:00:00,84.1,78.0,29.97,ENE,67,7.0,14.0,82,0.00,CLR,,0.00,WeatherDisplay:10.37,2013-08-11 17:00:00,
2013-08-11 11:16:00,84.7,79.0,29.97,East,86,12.0,18.0,83,0.00,CLR,,0.00,WeatherDisplay:10.37,2013-08-11 17:16:00,
2013-08-11 11:45:00,80.9,76.7,29.96,ESE,118,12.0,18.0,87,0.02,,,0.02,WeatherDisplay:10.37,2013-08-11 17:45:00,
2013-08-11 12:00:00,82.3,78.4,29.96,East,99,6.0,14.0,88,0.00,CLR,,0.02,WeatherDisplay:10.37,2013-08-11 18:00:00,
2013-08-11 12:15:00,83.8,78.8,29.94,East,89,9.0,16.0,85,0.00,CLR,,0.02,WeatherDisplay:10.37,2013-08-11 18:15:00,
2013-08-11 12:30:00,84.1,78.7,29.94,East,91,14.0,18.0,84,0.00,CLR,,0.02,WeatherDisplay:10.37,2013-08-11 18:30:00,
2013-08-11 12:45:00,84.5,78.7,29.94,ESE,104,8.0,19.0,83,0.00,CLR,,0.02,WeatherDisplay:10.37,2013-08-11 18:45:00,
2013-08-11 13:00:00,84.7,77.8,29.93,ENE,78,13.0,18.0,80,0.00,CLR,,0.02,WeatherDisplay:10.37,2013-08-11 19:00:00,
2013-08-11 13:15:00,84.5,78.8,29.94,East,87,13.0,18.0,83,0.00,CLR,,0.02,WeatherDisplay:10.37,2013-08-11 19:15:00,
2013-08-11 13:30:00,84.4,79.0,29.93,East,92,12.0,18.0,84,0.00,CLR,,0.02,WeatherDisplay:10.37,2013-08-11 19:30:00,
2013-08-11 14:00:00,84.7,79.3,29.92,East,85,9.0,15.0,84,0.00,CLR,,0.02,WeatherDisplay:10.37,2013-08-11 20:00:00,
2013-08-11 14:15:00,84.8,79.8,29.91,East,91,6.0,14.0,85,0.00,CLR,,0.02,WeatherDisplay:10.37,2013-08-11 20:15:00,
2013-08-11 14:30:00,84.7,79.0,29.91,East,93,13.0,16.0,83,0.00,CLR,,0.02,WeatherDisplay:10.37,2013-08-11 20:30:00,
2013-08-11 14:45:00,84.8,79.0,29.91,ENE,74,8.0,15.0,83,0.00,CLR,,0.02,WeatherDisplay:10.37,2013-08-11 20:45:00,
2013-08-11 15:01:00,84.8,79.1,29.91,East,92,9.0,14.0,83,0.00,CLR,,0.02,WeatherDisplay:10.37,2013-08-11 21:01:00,
2013-08-11 15:15:00,84.8,78.7,29.91,East,86,10.0,15.0,82,0.00,CLR,,0.02,WeatherDisplay:10.37,2013-08-11 21:15:00,
2013-08-11 15:30:00,84.8,79.1,29.90,East,82,7.0,14.0,83,0.00,CLR,,0.02,WeatherDisplay:10.37,2013-08-11 21:30:00,
2013-08-11 15:45:00,84.8,79.4,29.90,East,80,8.0,13.0,84,0.00,CLR,,0.02,WeatherDisplay:10.37,2013-08-11 21:45:00,
2013-08-11 16:00:00,84.7,79.3,29.90,East,86,9.0,15.0,84,0.00,CLR,,0.02,WeatherDisplay:10.37,2013-08-11 22:00:00,
2013-08-11 16:15:00,82.0,77.4,29.90,East,80,9.0,15.0,86,0.03,,,0.05,WeatherDisplay:10.37,2013-08-11 22:15:00,
2013-08-11 16:26:00,82.7,78.1,29.90,ENE,78,5.0,13.0,86,0.00,CLR,,0.05,WeatherDisplay:10.37,2013-08-11 22:26:00,
2013-08-11 16:46:00,83.7,79.4,29.90,East,91,8.0,15.0,87,0.00,CLR,,0.05,WeatherDisplay:10.37,2013-08-11 22:46:00,
2013-08-11 17:00:00,83.8,78.8,29.89,East,82,9.0,14.0,85,0.00,CLR,,0.05,WeatherDisplay:10.37,2013-08-11 23:00:00,
2013-08-11 17:15:00,84.3,78.5,29.89,ENE,77,12.0,16.0,83,0.00,CLR,,0.05,WeatherDisplay:10.37,2013-08-11 23:15:00,
2013-08-11 17:30:00,84.4,79.0,29.89,East,95,16.0,20.0,84,0.00,CLR,,0.05,WeatherDisplay:10.37,2013-08-11 23:30:00,
2013-08-11 18:01:00,83.4,78.1,29.90,East,81,15.0,23.0,84,0.00,CLR,,0.05,WeatherDisplay:10.37,2013-08-12 00:01:00,
2013-08-11 18:15:00,81.9,76.9,29.91,East,90,12.0,26.0,85,0.00,CLR,,0.05,WeatherDisplay:10.37,2013-08-12 00:15:00,
2013-08-11 18:45:00,83.1,78.5,29.91,East,98,5.0,13.0,86,0.00,CLR,,0.05,WeatherDisplay:10.37,2013-08-12 00:45:00,
2013-08-11 19:01:00,82.3,77.0,29.92,ESE,119,18.0,22.0,84,0.00,CLR,,0.05,WeatherDisplay:10.37,2013-08-12 01:01:00,
2013-08-11 19:15:00,82.8,77.9,29.92,ESE,114,12.0,16.0,85,0.00,CLR,,0.05,WeatherDisplay:10.37,2013-08-12 01:15:00,
2013-08-11 19:30:00,83.1,78.8,29.94,ESE,109,9.0,13.0,87,0.00,CLR,,0.05,WeatherDisplay:10.37,2013-08-12 01:30:00,
2013-08-11 19:45:00,82.5,78.9,29.94,ESE,106,2.0,13.0,89,0.00,CLR,,0.05,WeatherDisplay:10.37,2013-08-12 01:45:00,
2013-08-11 20:00:00,83.3,79.4,29.94,ENE,78,7.0,14.0,88,0.00,CLR,,0.05,WeatherDisplay:10.37,2013-08-12 02:00:00,
2013-08-11 20:15:00,83.7,79.0,29.95,ENE,74,9.0,14.0,86,0.00,CLR,,0.05,WeatherDisplay:10.37,2013-08-12 02:15:00,
2013-08-11 20:30:00,83.8,78.8,29.95,East,97,12.0,16.0,85,0.01,RA,,0.06,WeatherDisplay:10.37,2013-08-12 02:30:00,
2013-08-11 20:45:00,83.9,79.3,29.96,East,86,8.0,16.0,86,0.00,CLR,,0.06,WeatherDisplay:10.37,2013-08-12 02:45:00,
2013-08-11 21:00:00,84.3,79.2,29.97,East,92,7.0,18.0,85,0.00,CLR,,0.06,WeatherDisplay:10.37,2013-08-12 03:00:00,
2013-08-11 21:15:00,84.3,79.7,29.97,ESE,109,7.0,14.0,86,0.00,CLR,,0.06,WeatherDisplay:10.37,2013-08-12 03:15:00,
2013-08-11 21:30:00,84.3,79.3,29.97,East,101,13.0,19.0,85,0.00,CLR,,0.06,WeatherDisplay:10.37,2013-08-12 03:30:00,
2013-08-11 21:45:00,84.2,79.2,29.96,East,101,9.0,16.0,85,0.00,CLR,,0.06,WeatherDisplay:10.37,2013-08-12 03:45:00,
2013-08-11 22:01:00,84.4,79.0,29.97,East,92,8.0,16.0,84,0.00,CLR,,0.06,WeatherDisplay:10.37,2013-08-12 04:01:00,
2013-08-11 22:15:00,84.5,78.8,29.98,ESE,111,7.0,16.0,83,0.00,CLR,,0.06,WeatherDisplay:10.37,2013-08-12 04:15:00,
2013-08-11 22:30:00,84.5,78.8,29.97,East,97,14.0,18.0,83,0.00,CLR,,0.06,WeatherDisplay:10.37,2013-08-12 04:30:00,
2013-08-11 22:45:00,82.9,77.2,29.97,ESE,111,23.0,29.0,83,0.00,CLR,,0.06,WeatherDisplay:10.37,2013-08-12 04:45:00,
2013-08-11 23:00:00,81.1,76.8,29.97,ESE,119,10.0,25.0,87,0.00,CLR,,0.06,WeatherDisplay:10.37,2013-08-12 05:00:00,
2013-08-11 23:15:00,82.6,78.0,29.96,ESE,117,8.0,13.0,86,0.00,CLR,,0.06,WeatherDisplay:10.37,2013-08-12 05:15:00,
2013-08-11 23:30:00,82.8,78.5,29.96,ESE,117,3.0,12.0,87,0.00,CLR,,0.06,WeatherDisplay:10.37,2013-08-12 05:30:00,
2013-08-11 23:45:00,83.6,78.6,29.95,East,90,14.0,18.0,85,0.00,CLR,,0.06,WeatherDisplay:10.37,2013-08-12 05:45:00,